createdAt,value
2022-08-17T00:05:04.609Z,19
2022-08-17T00:25:04.580Z,18.98
2022-08-17T00:45:04.529Z,18.98
2022-08-17T02:45:04.384Z,18.88
2022-08-17T03:05:04.348Z,18.87
2022-08-17T03:25:04.337Z,18.86
2022-08-17T03:45:04.294Z,18.83
2022-08-17T04:25:04.248Z,18.78
2022-08-17T05:25:04.166Z,18.73
2022-08-17T06:25:04.079Z,18.67
2022-08-17T07:05:03.996Z,18.61
2022-08-17T07:25:03.971Z,18.58
2022-08-17T08:25:03.863Z,18.54
2022-08-17T08:45:04.899Z,18.52
2022-08-17T09:05:14.160Z,18.49
2022-08-17T09:25:03.760Z,18.48
2022-08-17T10:45:03.620Z,18.47
2022-08-17T11:05:03.563Z,18.47
2022-08-17T11:25:03.553Z,18.47
2022-08-17T12:05:03.479Z,18.47
2022-08-17T12:45:03.142Z,18.47
2022-08-17T13:45:22.334Z,18.5
2022-08-17T15:05:03.213Z,18.55
2022-08-17T15:25:03.182Z,18.56
2022-08-17T15:45:02.875Z,18.57
2022-08-17T16:05:02.876Z,18.59
2022-08-17T16:25:03.068Z,18.63
2022-08-17T16:45:03.038Z,18.66
2022-08-17T17:05:03.060Z,18.67
2022-08-17T17:25:02.967Z,18.7
2022-08-17T18:05:02.906Z,18.77
2022-08-17T18:25:02.939Z,18.78
2022-08-17T18:45:02.908Z,18.8
2022-08-17T19:05:02.810Z,18.84
2022-08-17T19:25:03.602Z,18.87
2022-08-17T19:45:02.736Z,18.87
2022-08-17T20:05:02.710Z,18.88
2022-08-17T20:25:02.711Z,18.88
2022-08-17T20:45:02.701Z,18.89
2022-08-17T21:05:03.983Z,18.9
2022-08-17T21:25:02.575Z,18.91
2022-08-17T21:45:02.542Z,18.91
2022-08-17T22:05:02.562Z,18.91
2022-08-17T22:25:02.513Z,18.9
2022-08-17T22:45:02.490Z,18.89
2022-08-17T23:05:02.446Z,18.88
2022-08-17T23:25:02.423Z,18.88
2022-08-17T23:45:02.391Z,18.87
